createdAt,value
2022-11-24T00:01:20.064Z,73.50
2022-11-24T00:03:55.843Z,73.60
2022-11-24T00:06:24.798Z,73.60
2022-11-24T00:08:53.908Z,73.50
2022-11-24T00:11:24.818Z,73.60
2022-11-24T00:13:53.668Z,73.70
2022-11-24T00:16:23.682Z,73.70
2022-11-24T00:18:55.434Z,73.70
2022-11-24T00:21:24.622Z,73.90
2022-11-24T00:23:53.442Z,74.00
2022-11-24T00:26:23.903Z,73.90
2022-11-24T00:28:53.894Z,73.90
2022-11-24T00:31:23.822Z,73.90
2022-11-24T00:33:54.984Z,73.90
2022-11-24T00:36:25.486Z,73.90
2022-11-24T00:38:55.553Z,73.90
2022-11-24T00:41:23.891Z,73.80
2022-11-24T00:43:52.132Z,73.70
2022-11-24T00:46:20.960Z,73.80
2022-11-24T00:48:49.496Z,73.80
2022-11-24T00:51:20.564Z,73.70
2022-11-24T00:53:48.841Z,73.80
2022-11-24T00:56:17.268Z,73.70
2022-11-24T00:58:45.563Z,73.70
2022-11-24T01:01:15.677Z,73.70
2022-11-24T01:03:44.597Z,73.70
2022-11-24T01:06:14.805Z,73.70
2022-11-24T01:08:44.916Z,73.70
2022-11-24T01:11:15.189Z,73.80
2022-11-24T01:13:44.902Z,73.80
2022-11-24T01:16:20.987Z,73.80
2022-11-24T01:18:49.796Z,73.90
2022-11-24T01:21:18.652Z,73.80
2022-11-24T01:23:48.416Z,73.90
2022-11-24T01:26:18.771Z,73.80
2022-11-24T01:28:47.838Z,73.90
2022-11-24T01:31:17.275Z,73.80
2022-11-24T01:33:45.506Z,73.80
2022-11-24T01:36:13.938Z,73.80
2022-11-24T01:38:42.282Z,73.80
2022-11-24T01:41:14.653Z,73.90
2022-11-24T01:43:43.981Z,73.80
2022-11-24T01:46:19.301Z,73.90
2022-11-24T01:48:52.850Z,74.00
2022-11-24T01:51:24.924Z,74.00
2022-11-24T01:53:56.255Z,73.90
2022-11-24T01:56:27.913Z,73.90
2022-11-24T01:59:00.234Z,74.10
2022-11-24T02:01:29.412Z,74.10
2022-11-24T02:03:58.438Z,74.20
2022-11-24T02:06:30.456Z,74.30
2022-11-24T02:08:59.675Z,74.30
2022-11-24T02:45:12.283Z,74.60
2022-11-24T02:47:40.487Z,74.60
2022-11-24T02:50:09.126Z,74.70
2022-11-24T02:52:37.313Z,74.80
2022-11-24T02:55:06.117Z,74.80
2022-11-24T02:57:34.354Z,74.80
2022-11-24T03:00:02.645Z,74.80
2022-11-24T03:02:32.269Z,74.90
2022-11-24T03:05:00.515Z,74.80
2022-11-24T03:07:28.725Z,74.90
2022-11-24T03:09:56.997Z,74.90
2022-11-24T03:12:25.255Z,74.90
2022-11-24T03:14:53.424Z,74.90
2022-11-24T03:17:21.589Z,74.90
2022-11-24T03:19:51.168Z,75.00
2022-11-24T03:22:19.337Z,75.00
2022-11-24T03:24:47.623Z,74.90
2022-11-24T03:27:15.860Z,74.80
2022-11-24T03:29:44.036Z,74.70
2022-11-24T03:32:12.217Z,74.60
2022-11-24T03:34:40.412Z,74.70
2022-11-24T03:37:10.532Z,74.60
2022-11-24T03:39:38.689Z,74.50
2022-11-24T03:42:06.935Z,74.40
2022-11-24T03:44:35.357Z,74.40
2022-11-24T03:47:03.657Z,75.10
2022-11-24T03:49:32.028Z,74.30
2022-11-24T03:52:05.127Z,74.30
2022-11-24T03:54:37.298Z,74.30
2022-11-24T03:57:05.542Z,74.30
2022-11-24T04:06:55.310Z,74.40
2022-11-24T04:09:23.549Z,74.20
2022-11-24T04:12:10.350Z,74.10
2022-11-24T04:14:38.502Z,74.10
2022-11-24T04:17:06.670Z,74.00
2022-11-24T04:19:34.874Z,74.10
2022-11-24T04:22:03.130Z,74.10
2022-11-24T04:24:31.707Z,74.30
2022-11-24T04:27:01.417Z,74.30
2022-11-24T04:29:29.612Z,74.30
2022-11-24T04:31:57.861Z,74.40
2022-11-24T04:34:26.071Z,74.40
2022-11-24T04:36:54.249Z,74.30
2022-11-24T04:39:26.523Z,74.30
2022-11-24T04:41:57.124Z,74.40
2022-11-24T04:44:26.673Z,74.60
2022-11-24T04:46:55.160Z,74.80
2022-11-24T04:49:23.365Z,74.90
2022-11-24T04:51:51.517Z,74.90
2022-11-24T04:54:19.759Z,75.00
2022-11-24T04:56:52.712Z,75.10
2022-11-24T04:59:21.222Z,75.20
2022-11-24T05:01:50.859Z,75.10
2022-11-24T05:04:20.428Z,75.00
2022-11-24T05:06:49.069Z,75.00
2022-11-24T05:09:18.312Z,75.70
2022-11-24T05:11:46.494Z,75.00
2022-11-24T05:14:14.689Z,75.10
2022-11-24T05:16:42.920Z,75.80
2022-11-24T05:19:13.039Z,75.10
2022-11-24T05:21:41.275Z,75.10
2022-11-24T05:24:09.786Z,75.10
2022-11-24T05:26:38.054Z,75.10
2022-11-24T05:29:06.219Z,74.90
2022-11-24T05:31:34.522Z,74.90
2022-11-24T05:34:02.760Z,74.90
2022-11-24T05:36:49.442Z,74.90
2022-11-24T05:39:17.626Z,74.90
2022-11-24T05:41:45.962Z,74.80
2022-11-24T05:44:14.309Z,74.80
2022-11-24T05:46:42.637Z,74.90
2022-11-24T05:49:10.973Z,74.90
2022-11-24T05:51:40.549Z,74.90
2022-11-24T05:54:08.717Z,74.80
2022-11-24T05:56:36.890Z,74.80
2022-11-24T05:59:09.655Z,74.80
2022-11-24T06:01:38.341Z,74.70
2022-11-24T06:04:06.618Z,74.60
2022-11-24T06:06:34.800Z,74.60
2022-11-24T06:09:04.397Z,74.70
2022-11-24T06:11:32.599Z,74.60
2022-11-24T06:14:00.769Z,74.70
2022-11-24T06:16:29.253Z,74.70
2022-11-24T06:18:57.766Z,74.70
2022-11-24T06:21:25.953Z,74.70
2022-11-24T06:23:54.144Z,74.70
2022-11-24T06:26:23.687Z,74.70
2022-11-24T06:28:51.860Z,75.00
2022-11-24T06:31:20.085Z,74.60
2022-11-24T06:33:48.346Z,74.60
2022-11-24T06:36:16.645Z,74.50
2022-11-24T06:38:44.862Z,74.60
2022-11-24T06:41:14.702Z,74.60
2022-11-24T06:43:44.292Z,74.70
2022-11-24T06:46:13.241Z,74.80
2022-11-24T06:48:41.448Z,74.90
2022-11-24T06:51:12.803Z,75.00
2022-11-24T06:53:41.954Z,75.00
2022-11-24T06:56:16.329Z,75.00
2022-11-24T06:58:47.464Z,75.10
2022-11-24T07:01:17.124Z,75.10
2022-11-24T07:03:45.509Z,75.20
2022-11-24T07:06:13.705Z,75.20
2022-11-24T07:08:41.945Z,75.30
2022-11-24T07:11:12.575Z,75.40
2022-11-24T07:13:40.722Z,75.50
2022-11-24T07:16:15.631Z,75.60
2022-11-24T07:18:44.421Z,75.60
2022-11-24T07:21:13.274Z,75.60
2022-11-24T07:23:42.278Z,75.60
2022-11-24T07:26:11.704Z,75.60
2022-11-24T07:28:40.339Z,75.60
2022-11-24T07:31:09.292Z,75.70
2022-11-24T07:33:39.210Z,75.90
2022-11-24T07:36:09.069Z,75.90
2022-11-24T07:38:37.449Z,75.90
2022-11-24T07:41:07.211Z,76.00
2022-11-24T07:43:36.792Z,76.00
2022-11-24T07:46:06.028Z,76.00
2022-11-24T07:48:34.615Z,76.00
2022-11-24T07:51:05.519Z,76.00
2022-11-24T07:53:34.003Z,76.00
2022-11-24T07:56:03.483Z,76.00
2022-11-24T07:58:33.446Z,76.10
2022-11-24T08:01:01.836Z,76.20
2022-11-24T08:03:30.016Z,76.20
2022-11-24T08:08:48.929Z,76.30
2022-11-24T08:11:18.419Z,76.30
2022-11-24T08:13:46.887Z,76.30
2022-11-24T08:16:17.108Z,76.20
2022-11-24T08:18:49.734Z,76.20
2022-11-24T08:21:17.967Z,76.20
2022-11-24T08:23:46.148Z,76.20
2022-11-24T08:26:18.868Z,76.20
2022-11-24T08:28:48.536Z,76.20
2022-11-24T08:31:19.651Z,76.20
2022-11-24T08:33:48.066Z,76.20
2022-11-24T08:36:18.512Z,76.30
2022-11-24T08:38:48.979Z,76.30
2022-11-24T08:41:18.927Z,76.30
2022-11-24T08:43:47.289Z,76.30
2022-11-24T08:46:18.462Z,76.30
2022-11-24T08:48:50.136Z,76.40
2022-11-24T08:51:20.860Z,76.40
2022-11-24T08:53:49.201Z,76.40
2022-11-24T08:56:18.725Z,76.40
2022-11-24T08:58:46.991Z,76.40
2022-11-24T09:01:17.697Z,76.50
2022-11-24T09:03:50.746Z,76.40
2022-11-24T09:06:22.912Z,76.40
2022-11-24T09:08:51.275Z,76.40
2022-11-24T09:11:21.666Z,76.30
2022-11-24T09:13:50.110Z,76.20
2022-11-24T09:16:21.195Z,76.30
2022-11-24T09:18:49.819Z,76.40
2022-11-24T09:21:20.258Z,76.50
2022-11-24T09:23:50.654Z,76.70
2022-11-24T09:26:23.014Z,76.70
2022-11-24T09:28:54.463Z,76.70
2022-11-24T09:31:24.687Z,76.60
2022-11-24T09:33:53.780Z,76.40
2022-11-24T09:36:22.841Z,76.30
2022-11-24T09:38:51.123Z,76.20
2022-11-24T09:41:45.692Z,76.30
2022-11-24T09:44:46.030Z,76.30
2022-11-24T09:47:21.886Z,75.90
2022-11-24T09:49:55.704Z,75.80
2022-11-24T09:52:39.276Z,75.70
2022-11-24T09:55:39.721Z,75.50
2022-11-24T09:58:22.972Z,75.50
2022-11-24T10:00:53.692Z,75.10
2022-11-24T10:03:28.890Z,75.40
2022-11-24T10:05:57.234Z,75.60
2022-11-24T10:08:46.787Z,75.70
2022-11-24T10:11:17.771Z,75.40
2022-11-24T10:14:08.639Z,75.30
2022-11-24T10:16:47.550Z,75.10
2022-11-24T10:19:34.448Z,74.30
2022-11-24T10:22:19.750Z,73.90
2022-11-24T10:25:03.408Z,73.60
2022-11-24T10:27:36.969Z,73.50
2022-11-24T10:30:15.941Z,73.60
2022-11-24T10:32:48.251Z,73.60
2022-11-24T10:35:20.285Z,73.30
2022-11-24T10:37:58.035Z,73.00
2022-11-24T10:43:22.743Z,73.20
2022-11-24T10:45:52.415Z,73.20
2022-11-24T10:48:25.489Z,73.00
2022-11-24T10:50:55.305Z,73.10
2022-11-24T10:53:27.564Z,73.10
2022-11-24T10:56:00.452Z,73.00
2022-11-24T10:58:36.067Z,72.80
2022-11-24T11:01:27.671Z,72.90
2022-11-24T11:03:59.258Z,72.80
2022-11-24T11:06:28.849Z,72.90
2022-11-24T11:09:19.678Z,72.70
2022-11-24T11:11:48.909Z,72.50
2022-11-24T11:14:31.334Z,72.70
2022-11-24T11:17:01.099Z,72.40
2022-11-24T11:19:57.008Z,72.50
2022-11-24T11:22:28.172Z,72.70
2022-11-24T11:25:07.191Z,72.40
2022-11-24T11:27:35.425Z,72.30
2022-11-24T11:36:12.625Z,71.60
2022-11-24T11:38:42.929Z,71.60
2022-11-24T11:41:21.730Z,71.40
2022-11-24T11:43:57.792Z,71.10
2022-11-24T11:46:27.713Z,71.00
2022-11-24T11:48:57.506Z,71.00
2022-11-24T11:51:35.623Z,70.90
2022-11-24T11:54:10.599Z,71.00
2022-11-24T11:56:45.190Z,70.80
2022-11-24T11:59:37.415Z,70.70
2022-11-24T12:02:30.479Z,70.50
2022-11-24T12:05:03.218Z,70.50
2022-11-24T12:07:48.657Z,70.30
2022-11-24T12:10:27.368Z,69.90
2022-11-24T12:13:09.332Z,69.90
2022-11-24T12:15:41.952Z,69.90
2022-11-24T12:18:48.355Z,70.20
2022-11-24T12:21:24.571Z,70.20
2022-11-24T12:24:05.730Z,70.40
2022-11-24T12:26:43.431Z,70.50
2022-11-24T12:29:40.590Z,71.40
2022-11-24T12:32:17.845Z,70.50
2022-11-24T12:34:54.827Z,70.40
2022-11-24T12:37:38.197Z,70.00
2022-11-24T12:40:15.761Z,69.90
2022-11-24T12:42:56.274Z,69.70
2022-11-24T12:45:33.570Z,69.50
2022-11-24T12:48:32.256Z,69.40
2022-11-24T12:51:01.469Z,69.00
2022-11-24T12:53:35.777Z,69.10
2022-11-24T12:56:16.032Z,68.70
2022-11-24T12:58:52.166Z,68.60
2022-11-24T13:01:34.601Z,68.50
2022-11-24T13:04:17.248Z,68.30
2022-11-24T13:06:52.940Z,68.20
2022-11-24T13:09:22.784Z,68.30
2022-11-24T13:11:52.951Z,68.30
2022-11-24T13:14:23.638Z,68.30
2022-11-24T13:19:43.828Z,68.00
2022-11-24T13:22:17.070Z,67.90
2022-11-24T13:24:46.691Z,67.50
2022-11-24T13:27:41.973Z,67.50
2022-11-24T13:30:58.505Z,67.50
2022-11-24T13:33:37.303Z,67.30
2022-11-24T13:36:33.878Z,67.10
2022-11-24T13:39:03.663Z,67.10
2022-11-24T13:42:07.737Z,67.30
2022-11-24T13:44:53.909Z,66.60
2022-11-24T13:47:40.621Z,66.40
2022-11-24T13:50:25.324Z,66.70
2022-11-24T13:53:01.849Z,66.80
2022-11-24T13:55:34.780Z,66.80
2022-11-24T13:58:22.678Z,66.70
2022-11-24T14:01:08.252Z,66.40
2022-11-24T14:03:39.949Z,66.10
2022-11-24T14:06:15.297Z,66.20
2022-11-24T14:08:46.492Z,66.30
2022-11-24T14:11:17.279Z,66.40
2022-11-24T14:13:45.965Z,66.10
2022-11-24T14:16:19.181Z,66.20
2022-11-24T14:18:48.714Z,65.90
2022-11-24T14:21:28.075Z,65.90
2022-11-24T14:23:59.104Z,66.10
2022-11-24T14:26:33.202Z,66.20
2022-11-24T14:29:07.376Z,65.90
2022-11-24T14:31:37.241Z,65.70
2022-11-24T14:34:15.847Z,66.00
2022-11-24T14:36:45.683Z,65.80
2022-11-24T14:39:15.694Z,65.90
2022-11-24T14:41:51.434Z,65.60
2022-11-24T14:44:23.898Z,65.40
2022-11-24T14:47:03.203Z,65.40
2022-11-24T14:49:32.556Z,65.00
2022-11-24T14:52:04.338Z,65.20
2022-11-24T14:54:33.205Z,65.10
2022-11-24T14:57:04.346Z,65.40
2022-11-24T14:59:36.073Z,65.40
2022-11-24T15:02:42.092Z,65.40
2022-11-24T15:05:10.934Z,65.10
2022-11-24T15:07:42.216Z,65.20
2022-11-24T15:10:34.099Z,65.20
2022-11-24T15:13:05.025Z,65.20
2022-11-24T15:15:36.871Z,65.50
2022-11-24T15:18:07.796Z,65.60
2022-11-24T15:20:41.698Z,65.60
2022-11-24T15:23:24.333Z,65.40
2022-11-24T15:25:53.515Z,65.20
2022-11-24T15:28:25.691Z,65.20
2022-11-24T15:30:54.577Z,65.00
2022-11-24T15:33:24.916Z,64.80
2022-11-24T15:35:53.182Z,65.10
2022-11-24T15:38:21.576Z,64.90
2022-11-24T15:40:51.643Z,64.80
2022-11-24T15:43:28.885Z,64.80
2022-11-24T15:45:57.234Z,64.70
2022-11-24T15:48:27.269Z,64.90
2022-11-24T15:50:57.319Z,64.80
2022-11-24T15:53:29.244Z,64.90
2022-11-24T15:55:57.703Z,65.00
2022-11-24T15:58:26.150Z,65.50
2022-11-24T16:00:54.498Z,65.90
2022-11-24T16:06:16.717Z,65.20
2022-11-24T16:08:47.724Z,65.30
2022-11-24T16:11:15.952Z,65.50
2022-11-24T16:13:50.060Z,65.50
2022-11-24T16:16:20.908Z,65.30
2022-11-24T16:18:49.145Z,65.40
2022-11-24T16:21:18.749Z,65.50
2022-11-24T16:23:47.809Z,65.50
2022-11-24T16:26:16.061Z,65.50
2022-11-24T16:28:45.736Z,65.40
2022-11-24T16:31:15.815Z,65.40
2022-11-24T16:33:45.512Z,65.50
2022-11-24T16:36:14.284Z,65.50
2022-11-24T16:38:43.848Z,65.40
2022-11-24T16:41:12.499Z,65.40
2022-11-24T16:43:40.853Z,65.40
2022-11-24T16:46:18.985Z,65.50
2022-11-24T16:48:48.408Z,65.50
2022-11-24T16:51:18.009Z,65.80
2022-11-24T16:53:48.154Z,65.50
2022-11-24T16:56:17.585Z,65.70
2022-11-24T16:58:45.806Z,65.70
2022-11-24T17:01:15.148Z,65.90
2022-11-24T17:03:43.697Z,66.00
2022-11-24T17:06:15.792Z,65.90
2022-11-24T17:08:45.617Z,66.00
2022-11-24T17:11:16.662Z,66.00
2022-11-24T17:13:47.014Z,66.00
2022-11-24T17:16:17.129Z,66.00
2022-11-24T17:18:45.977Z,66.00
2022-11-24T17:21:15.247Z,66.30
2022-11-24T17:23:43.813Z,66.10
2022-11-24T17:26:15.221Z,66.10
2022-11-24T17:28:43.928Z,66.20
2022-11-24T17:31:18.844Z,66.30
2022-11-24T17:33:47.198Z,66.20
2022-11-24T17:36:15.404Z,66.40
2022-11-24T17:38:43.651Z,66.50
2022-11-24T17:41:12.082Z,66.50
2022-11-24T17:43:42.141Z,66.40
2022-11-24T17:46:11.745Z,66.50
2022-11-24T17:48:40.232Z,66.60
2022-11-24T17:51:12.722Z,66.70
2022-11-24T17:53:41.933Z,66.90
2022-11-24T17:56:13.875Z,67.10
2022-11-24T17:58:43.623Z,67.20
2022-11-24T18:01:12.610Z,67.40
2022-11-24T18:03:41.476Z,67.30
2022-11-24T18:06:11.270Z,67.40
2022-11-24T18:08:41.180Z,67.30
2022-11-24T18:11:11.104Z,67.20
2022-11-24T18:16:30.436Z,67.50
2022-11-24T18:19:09.875Z,67.70
2022-11-24T18:21:39.065Z,67.80
2022-11-24T18:24:07.821Z,67.90
2022-11-24T18:26:36.049Z,68.10
2022-11-24T18:29:04.428Z,68.30
2022-11-24T18:31:35.689Z,68.40
2022-11-24T18:34:05.460Z,68.30
2022-11-24T18:36:34.566Z,68.40
2022-11-24T18:39:03.181Z,68.50
2022-11-24T18:41:31.838Z,68.40
2022-11-24T18:44:02.449Z,68.20
2022-11-24T18:46:30.757Z,68.40
2022-11-24T18:49:00.432Z,68.30
2022-11-24T18:51:30.129Z,68.50
2022-11-24T18:53:59.047Z,68.60
2022-11-24T18:56:27.915Z,69.10
2022-11-24T18:58:57.792Z,69.10
2022-11-24T19:01:27.977Z,69.10
2022-11-24T19:03:58.412Z,69.40
2022-11-24T19:06:32.007Z,69.60
2022-11-24T19:09:01.642Z,69.10
2022-11-24T19:11:32.424Z,68.70
2022-11-24T19:14:00.780Z,68.60
2022-11-24T19:16:29.014Z,68.30
2022-11-24T19:19:00.028Z,68.20
2022-11-24T19:21:31.464Z,68.40
2022-11-24T19:24:04.530Z,68.50
2022-11-24T19:26:34.993Z,68.60
2022-11-24T19:29:03.986Z,68.90
2022-11-24T19:31:32.534Z,69.10
2022-11-24T19:34:02.904Z,69.20
2022-11-24T19:36:33.060Z,69.40
2022-11-24T19:39:03.153Z,69.60
2022-11-24T19:41:32.502Z,69.70
2022-11-24T19:44:01.021Z,69.90
2022-11-24T19:46:30.668Z,70.10
2022-11-24T19:49:02.014Z,70.10
2022-11-24T19:51:33.878Z,69.90
2022-11-24T19:54:02.687Z,69.80
2022-11-24T19:56:32.248Z,69.50
2022-11-24T19:59:00.425Z,69.30
2022-11-24T20:01:30.935Z,69.80
2022-11-24T20:04:00.701Z,69.10
2022-11-24T20:06:30.401Z,69.10
2022-11-24T20:09:01.121Z,69.20
2022-11-24T20:11:30.034Z,69.40
2022-11-24T20:13:58.815Z,69.60
2022-11-24T20:16:29.669Z,69.90
2022-11-24T20:18:59.477Z,70.20
2022-11-24T20:21:31.180Z,70.50
2022-11-24T20:24:02.510Z,70.90
2022-11-24T20:26:33.550Z,71.00
2022-11-24T20:29:02.692Z,71.10
2022-11-24T20:31:33.789Z,71.30
2022-11-24T20:34:03.587Z,71.40
2022-11-24T20:36:33.481Z,71.40
2022-11-24T20:39:06.044Z,71.50
2022-11-24T20:41:36.290Z,71.60
2022-11-24T20:44:08.188Z,71.60
2022-11-24T20:46:37.273Z,71.60
2022-11-24T20:49:06.627Z,71.50
2022-11-24T20:51:37.585Z,71.30
2022-11-24T20:54:09.148Z,71.10
2022-11-24T20:56:39.789Z,71.20
2022-11-24T20:59:08.355Z,71.30
2022-11-24T21:01:39.216Z,71.60
2022-11-24T21:04:09.420Z,72.00
2022-11-24T21:06:38.036Z,72.40
2022-11-24T21:09:08.432Z,72.60
2022-11-24T21:11:37.525Z,72.70
2022-11-24T21:14:05.930Z,72.90
2022-11-24T21:16:35.809Z,73.10
2022-11-24T21:19:05.852Z,73.20
2022-11-24T21:21:36.424Z,73.20
2022-11-24T21:24:06.256Z,73.30
2022-11-24T21:26:38.355Z,73.30
2022-11-24T21:29:08.966Z,73.50
2022-11-24T21:31:38.746Z,73.30
2022-11-24T21:34:08.339Z,73.20
2022-11-24T21:36:40.685Z,73.20
2022-11-24T21:39:12.189Z,73.10
2022-11-24T21:41:42.730Z,73.00
2022-11-24T21:44:12.871Z,73.00
2022-11-24T21:46:46.128Z,73.10
2022-11-24T21:49:17.689Z,73.10
2022-11-24T21:51:45.866Z,73.00
2022-11-24T21:54:14.089Z,72.90
2022-11-24T21:56:43.642Z,72.90
2022-11-24T21:59:11.869Z,73.70
2022-11-24T22:01:40.118Z,73.00
2022-11-24T22:04:08.337Z,73.00
2022-11-24T22:06:36.687Z,73.00
2022-11-24T22:09:04.876Z,73.10
2022-11-24T22:11:33.059Z,73.20
2022-11-24T22:14:02.647Z,73.20
2022-11-24T22:16:31.028Z,73.30
2022-11-24T22:19:01.707Z,73.50
2022-11-24T22:21:33.366Z,73.50
2022-11-24T22:24:01.949Z,73.60
2022-11-24T22:26:31.033Z,73.70
2022-11-24T22:28:59.824Z,73.70
2022-11-24T22:31:31.059Z,73.70
2022-11-24T22:34:00.434Z,73.90
2022-11-24T22:36:30.863Z,73.90
2022-11-24T22:39:03.042Z,74.00
2022-11-24T22:41:32.664Z,74.10
2022-11-24T22:44:01.021Z,74.00
2022-11-24T22:46:32.455Z,73.80
2022-11-24T22:49:02.121Z,73.60
2022-11-24T22:51:32.483Z,73.40
2022-11-24T22:54:01.772Z,73.40
2022-11-24T22:56:32.339Z,73.50
2022-11-24T22:59:01.123Z,73.60
2022-11-24T23:01:32.146Z,73.70
2022-11-24T23:04:00.515Z,73.80
2022-11-24T23:06:31.079Z,74.00
2022-11-24T23:09:02.128Z,74.00
2022-11-24T23:11:37.417Z,74.00
2022-11-24T23:14:07.068Z,74.10
2022-11-24T23:16:36.900Z,74.10
2022-11-24T23:19:05.757Z,74.20
2022-11-24T23:21:36.007Z,74.30
2022-11-24T23:24:05.444Z,74.30
2022-11-24T23:26:36.120Z,74.30
2022-11-24T23:29:05.004Z,74.30
2022-11-24T23:31:33.307Z,74.30
2022-11-24T23:34:04.484Z,74.40
2022-11-24T23:36:33.803Z,74.40
2022-11-24T23:39:05.901Z,74.10
2022-11-24T23:41:34.437Z,73.80
2022-11-24T23:44:02.619Z,73.50
2022-11-24T23:46:31.309Z,73.30
2022-11-24T23:48:59.641Z,73.10
2022-11-24T23:51:30.706Z,72.90
2022-11-24T23:54:00.000Z,72.80
2022-11-24T23:56:32.372Z,72.80
2022-11-24T23:59:01.253Z,72.70
